createdAt,value
2018-12-18T00:00:04.632Z,51.52
2018-12-18T00:00:36.229Z,51.52
2018-12-18T00:01:07.809Z,51.50
2018-12-18T00:01:39.416Z,51.40
2018-12-18T00:02:11.052Z,51.47
2018-12-18T00:02:42.677Z,51.45
2018-12-18T00:03:14.284Z,51.52
2018-12-18T00:03:45.891Z,51.44
2018-12-18T00:04:17.498Z,51.44
2018-12-18T00:04:49.093Z,51.40
2018-12-18T00:05:26.375Z,51.40
2018-12-18T00:05:57.978Z,51.51
2018-12-18T00:06:29.570Z,51.56
2018-12-18T00:07:01.182Z,51.53
2018-12-18T00:07:32.812Z,51.50
2018-12-18T00:08:04.409Z,51.48
2018-12-18T00:08:36.020Z,51.46
2018-12-18T00:09:07.624Z,51.45
2018-12-18T00:09:39.218Z,51.38
2018-12-18T00:10:10.818Z,51.41
2018-12-18T00:10:46.175Z,51.33
2018-12-18T00:11:17.791Z,51.45
2018-12-18T00:11:49.391Z,51.33
2018-12-18T00:12:21.029Z,51.41
2018-12-18T00:12:52.626Z,51.31
2018-12-18T00:13:24.208Z,51.34
2018-12-18T00:13:55.798Z,51.42
2018-12-18T00:14:27.398Z,51.41
2018-12-18T00:14:59.008Z,51.40
2018-12-18T00:15:30.617Z,51.39
2018-12-18T00:16:02.199Z,51.46
2018-12-18T00:16:33.797Z,51.34
2018-12-18T00:17:05.393Z,51.39
2018-12-18T00:17:37.664Z,51.49
2018-12-18T00:18:09.257Z,51.47
2018-12-18T00:18:40.853Z,51.45
2018-12-18T00:19:12.435Z,51.44
2018-12-18T00:19:44.040Z,51.50
2018-12-18T00:20:15.654Z,51.48
2018-12-18T00:20:47.250Z,51.49
2018-12-18T00:21:18.841Z,51.48
2018-12-18T00:21:50.447Z,51.52
2018-12-18T00:22:22.056Z,51.53
2018-12-18T00:22:53.684Z,51.50
2018-12-18T00:23:25.282Z,51.53
2018-12-18T00:23:56.877Z,51.53
2018-12-18T00:24:28.482Z,51.50
2018-12-18T00:25:00.077Z,51.54
2018-12-18T00:25:31.660Z,51.52
2018-12-18T00:26:03.249Z,51.72
2018-12-18T00:26:34.846Z,51.51
2018-12-18T00:27:06.496Z,51.56
2018-12-18T00:27:38.115Z,51.45
2018-12-18T00:28:09.705Z,51.66
2018-12-18T00:28:41.349Z,51.89
2018-12-18T00:29:12.954Z,51.65
2018-12-18T00:29:44.546Z,51.83
2018-12-18T00:30:16.139Z,51.94
2018-12-18T00:30:47.744Z,51.89
2018-12-18T00:31:19.349Z,51.66
2018-12-18T00:31:51.021Z,51.76
2018-12-18T00:32:22.628Z,51.69
2018-12-18T00:32:54.249Z,51.64
2018-12-18T00:33:25.845Z,51.70
2018-12-18T00:33:57.420Z,51.78
2018-12-18T00:34:29.010Z,51.76
2018-12-18T00:35:00.606Z,51.76
2018-12-18T00:35:32.216Z,51.83
2018-12-18T00:36:03.827Z,51.64
2018-12-18T00:36:35.433Z,51.70
2018-12-18T00:37:07.045Z,51.70
2018-12-18T00:37:38.663Z,51.60
2018-12-18T00:38:10.267Z,51.69
2018-12-18T00:38:41.871Z,51.61
2018-12-18T00:39:13.465Z,51.61
2018-12-18T00:39:45.066Z,51.64
2018-12-18T00:40:16.660Z,51.70
2018-12-18T00:40:48.267Z,51.70
2018-12-18T00:41:19.867Z,51.70
2018-12-18T00:41:51.465Z,51.54
2018-12-18T00:42:23.060Z,51.67
2018-12-18T00:42:54.692Z,51.63
2018-12-18T00:43:26.296Z,51.64
2018-12-18T00:43:57.899Z,51.54
2018-12-18T00:44:29.513Z,51.63
2018-12-18T00:45:01.123Z,51.58
2018-12-18T00:45:32.726Z,51.62
2018-12-18T00:46:04.332Z,51.68
2018-12-18T00:46:35.930Z,51.65
2018-12-18T00:47:07.512Z,51.75
2018-12-18T00:47:39.110Z,51.53
2018-12-18T00:48:10.728Z,51.58
2018-12-18T00:48:42.331Z,51.51
2018-12-18T00:49:13.925Z,51.67
2018-12-18T00:49:45.518Z,51.53
2018-12-18T00:50:17.113Z,51.54
2018-12-18T00:50:48.691Z,51.53
2018-12-18T00:51:20.300Z,51.65
2018-12-18T00:51:51.895Z,51.72
2018-12-18T00:52:23.519Z,51.52
2018-12-18T00:52:55.159Z,51.69
2018-12-18T00:53:26.753Z,51.72
2018-12-18T00:53:58.348Z,51.79
2018-12-18T00:54:29.945Z,51.86
2018-12-18T00:55:01.529Z,51.87
2018-12-18T00:55:33.118Z,51.65
2018-12-18T00:56:04.717Z,51.68
2018-12-18T00:56:36.326Z,51.73
2018-12-18T00:57:07.925Z,51.94
2018-12-18T00:57:39.532Z,51.74
2018-12-18T00:58:11.146Z,51.87
2018-12-18T00:58:42.741Z,51.69
2018-12-18T00:59:14.344Z,51.65
2018-12-18T00:59:45.951Z,51.78
2018-12-18T01:00:17.564Z,51.74
2018-12-18T01:00:49.157Z,51.73
2018-12-18T01:01:20.749Z,51.78
2018-12-18T01:01:57.989Z,51.76
2018-12-18T01:02:29.624Z,51.93
2018-12-18T01:03:01.252Z,51.78
2018-12-18T01:03:32.846Z,51.72
2018-12-18T01:04:04.452Z,51.75
2018-12-18T01:04:36.055Z,51.67
2018-12-18T01:05:07.662Z,51.84
2018-12-18T01:05:39.262Z,51.98
2018-12-18T01:06:10.887Z,51.91
2018-12-18T01:06:42.495Z,51.84
2018-12-18T01:07:14.108Z,51.78
2018-12-18T01:07:45.702Z,51.82
2018-12-18T01:08:17.322Z,51.94
2018-12-18T01:08:48.920Z,51.85
2018-12-18T01:09:20.500Z,51.77
2018-12-18T01:09:52.090Z,51.78
2018-12-18T01:10:23.672Z,51.82
2018-12-18T01:10:55.268Z,52.11
2018-12-18T01:11:26.875Z,51.79
2018-12-18T01:11:58.484Z,51.79
2018-12-18T01:12:30.096Z,51.81
2018-12-18T01:13:01.732Z,51.84
2018-12-18T01:13:33.324Z,51.92
2018-12-18T01:14:04.935Z,51.84
2018-12-18T01:14:36.530Z,51.88
2018-12-18T01:15:08.139Z,51.87
2018-12-18T01:15:39.734Z,51.82
2018-12-18T01:16:11.330Z,52.04
2018-12-18T01:16:42.933Z,51.79
2018-12-18T01:17:14.533Z,52.14
2018-12-18T01:17:46.130Z,51.86
2018-12-18T01:18:17.764Z,51.95
2018-12-18T01:18:49.372Z,51.92
2018-12-18T01:19:20.956Z,51.94
2018-12-18T01:19:52.560Z,52.03
2018-12-18T01:20:24.169Z,51.91
2018-12-18T01:20:55.772Z,52.08
2018-12-18T01:21:27.369Z,52.00
2018-12-18T01:21:58.977Z,51.89
2018-12-18T01:22:30.578Z,51.94
2018-12-18T01:23:02.172Z,51.89
2018-12-18T01:23:33.787Z,51.94
2018-12-18T01:24:05.396Z,51.99
2018-12-18T01:24:36.989Z,52.13
2018-12-18T01:25:08.581Z,52.07
2018-12-18T01:25:40.192Z,52.05
2018-12-18T01:26:11.796Z,52.01
2018-12-18T01:26:43.399Z,52.15
2018-12-18T01:27:15.012Z,52.30
2018-12-18T01:27:46.608Z,52.28
2018-12-18T01:28:18.230Z,52.46
2018-12-18T01:28:49.835Z,52.33
2018-12-18T01:29:21.431Z,52.27
2018-12-18T01:29:53.025Z,52.24
2018-12-18T01:30:24.649Z,52.28
2018-12-18T01:30:56.260Z,52.28
2018-12-18T01:31:27.864Z,52.32
2018-12-18T01:31:59.458Z,52.14
2018-12-18T01:32:31.054Z,52.33
2018-12-18T01:33:02.665Z,52.38
2018-12-18T01:33:34.285Z,52.52
2018-12-18T01:34:05.878Z,52.59
2018-12-18T01:34:37.479Z,52.72
2018-12-18T01:35:09.123Z,52.70
2018-12-18T01:35:40.736Z,52.63
2018-12-18T01:36:12.341Z,52.67
2018-12-18T01:36:43.925Z,52.64
2018-12-18T01:37:15.515Z,52.72
2018-12-18T01:37:47.124Z,52.57
2018-12-18T01:38:18.766Z,52.59
2018-12-18T01:38:50.363Z,52.53
2018-12-18T01:39:21.957Z,52.68
2018-12-18T01:39:53.550Z,52.78
2018-12-18T01:40:25.141Z,52.65
2018-12-18T01:40:56.737Z,52.58
2018-12-18T01:41:28.349Z,52.85
2018-12-18T01:41:59.955Z,52.69
2018-12-18T01:42:31.552Z,52.77
2018-12-18T01:43:03.158Z,52.68
2018-12-18T01:43:34.781Z,52.51
2018-12-18T01:44:06.377Z,52.65
2018-12-18T01:44:37.975Z,52.63
2018-12-18T01:45:09.573Z,52.57
2018-12-18T01:45:41.179Z,52.50
2018-12-18T01:46:12.765Z,52.59
2018-12-18T01:46:44.357Z,52.62
2018-12-18T01:47:15.953Z,52.59
2018-12-18T01:47:47.548Z,52.57
2018-12-18T01:48:19.179Z,52.59
2018-12-18T01:48:50.817Z,52.59
2018-12-18T01:49:22.434Z,52.51
2018-12-18T01:49:54.034Z,52.58
2018-12-18T01:50:25.625Z,52.55
2018-12-18T01:50:57.235Z,52.53
2018-12-18T01:51:28.850Z,52.44
2018-12-18T01:52:00.463Z,52.67
2018-12-18T01:52:32.071Z,52.51
2018-12-18T01:53:03.675Z,52.71
2018-12-18T01:53:35.291Z,52.66
2018-12-18T01:54:06.900Z,52.64
2018-12-18T01:54:38.497Z,52.72
2018-12-18T01:55:10.102Z,52.53
2018-12-18T01:55:41.683Z,52.58
2018-12-18T01:56:13.292Z,52.51
2018-12-18T01:56:44.890Z,52.43
2018-12-18T01:57:16.493Z,52.54
2018-12-18T01:57:48.090Z,52.41
2018-12-18T01:58:19.686Z,52.57
2018-12-18T01:58:51.314Z,52.53
2018-12-18T01:59:22.920Z,52.49
2018-12-18T01:59:54.525Z,52.52
2018-12-18T02:00:26.122Z,52.51
2018-12-18T02:00:57.722Z,52.53
2018-12-18T02:01:29.328Z,52.45
2018-12-18T02:02:00.923Z,52.64
2018-12-18T02:02:32.536Z,52.54
2018-12-18T02:03:04.147Z,52.69
2018-12-18T02:03:35.790Z,52.61
2018-12-18T02:04:07.401Z,52.69
2018-12-18T02:04:39.003Z,52.70
2018-12-18T02:05:10.617Z,52.69
2018-12-18T02:05:42.282Z,52.76
2018-12-18T02:06:13.878Z,52.64
2018-12-18T02:06:45.475Z,52.66
2018-12-18T02:07:17.070Z,52.70
2018-12-18T02:07:48.669Z,52.76
2018-12-18T02:08:20.252Z,52.74
2018-12-18T02:08:51.883Z,52.68
2018-12-18T02:09:23.481Z,52.66
2018-12-18T02:09:55.079Z,52.51
2018-12-18T02:10:26.675Z,52.55
2018-12-18T02:10:58.274Z,52.55
2018-12-18T02:11:29.852Z,52.71
2018-12-18T02:12:01.441Z,52.65
2018-12-18T02:12:33.042Z,52.65
2018-12-18T02:13:04.646Z,52.71
2018-12-18T02:13:36.251Z,52.62
2018-12-18T02:14:07.874Z,53.07
2018-12-18T02:14:39.490Z,53.17
2018-12-18T02:15:11.081Z,52.98
2018-12-18T02:15:42.679Z,53.26
2018-12-18T02:16:14.276Z,52.95
2018-12-18T02:16:45.857Z,53.09
2018-12-18T02:17:17.451Z,52.86
2018-12-18T02:17:49.056Z,52.91
2018-12-18T02:18:20.650Z,52.93
2018-12-18T02:18:52.271Z,52.87
2018-12-18T02:19:23.851Z,52.79
2018-12-18T02:19:55.459Z,52.86
2018-12-18T02:20:27.055Z,52.86
2018-12-18T02:20:58.649Z,52.88
2018-12-18T02:21:30.255Z,52.83
2018-12-18T02:22:01.859Z,52.82
2018-12-18T02:22:33.468Z,52.89
2018-12-18T02:23:05.063Z,52.78
2018-12-18T02:23:36.670Z,52.72
2018-12-18T02:24:08.289Z,52.79
2018-12-18T02:24:39.893Z,52.75
2018-12-18T02:25:11.500Z,52.71
2018-12-18T02:25:43.096Z,52.68
2018-12-18T02:26:14.685Z,52.69
2018-12-18T02:26:46.278Z,52.69
2018-12-18T02:27:17.887Z,52.63
2018-12-18T02:27:49.486Z,52.73
2018-12-18T02:28:21.063Z,52.80
2018-12-18T02:28:52.701Z,52.61
2018-12-18T02:29:24.312Z,52.65
2018-12-18T02:29:55.919Z,52.71
2018-12-18T02:30:27.514Z,52.79
2018-12-18T02:30:59.128Z,52.78
2018-12-18T02:31:30.709Z,52.69
2018-12-18T02:32:02.321Z,52.70
2018-12-18T02:32:33.922Z,52.68
2018-12-18T02:33:05.524Z,52.71
2018-12-18T02:33:37.139Z,52.67
2018-12-18T02:34:13.757Z,52.64
2018-12-18T02:34:40.415Z,52.60
2018-12-18T02:35:12.061Z,52.71
2018-12-18T02:35:43.662Z,52.71
2018-12-18T02:36:15.258Z,52.61
2018-12-18T02:36:46.913Z,52.70
2018-12-18T02:37:18.524Z,52.64
2018-12-18T02:37:50.132Z,52.89
2018-12-18T02:38:21.748Z,52.81
2018-12-18T02:38:53.359Z,52.67
2018-12-18T02:39:24.996Z,52.82
2018-12-18T02:39:56.583Z,52.65
2018-12-18T02:40:28.181Z,52.78
2018-12-18T02:40:59.787Z,52.67
2018-12-18T02:41:31.396Z,52.68
2018-12-18T02:42:02.995Z,52.80
2018-12-18T02:42:34.624Z,52.78
2018-12-18T02:43:06.235Z,52.73
2018-12-18T02:43:37.848Z,52.76
2018-12-18T02:44:09.482Z,52.67
2018-12-18T02:44:41.083Z,52.71
2018-12-18T02:45:12.679Z,52.75
2018-12-18T02:45:44.344Z,52.72
2018-12-18T02:46:15.948Z,52.78
2018-12-18T02:46:47.541Z,52.75
2018-12-18T02:47:19.120Z,52.85
2018-12-18T02:47:50.714Z,52.77
2018-12-18T02:48:22.306Z,52.63
2018-12-18T02:48:53.906Z,52.70
2018-12-18T02:49:25.501Z,52.84
2018-12-18T02:49:57.109Z,52.77
2018-12-18T02:50:28.728Z,52.70
2018-12-18T02:51:00.320Z,52.69
2018-12-18T02:51:31.918Z,52.81
2018-12-18T02:52:03.514Z,52.77
2018-12-18T02:52:35.112Z,52.76
2018-12-18T02:53:06.715Z,52.82
2018-12-18T02:53:38.324Z,52.72
2018-12-18T02:54:10.307Z,52.79
2018-12-18T02:54:42.096Z,53.00
2018-12-18T02:55:13.716Z,53.04
2018-12-18T02:55:45.310Z,53.12
2018-12-18T02:56:16.920Z,53.32
2018-12-18T02:56:48.527Z,53.15
2018-12-18T02:57:20.113Z,53.06
2018-12-18T02:57:51.706Z,53.10
2018-12-18T02:58:23.297Z,53.07
2018-12-18T02:58:54.904Z,53.18
2018-12-18T02:59:26.516Z,53.30
2018-12-18T02:59:58.110Z,53.12
2018-12-18T03:00:29.705Z,53.17
2018-12-18T03:01:01.298Z,53.05
2018-12-18T03:01:32.921Z,53.03
2018-12-18T03:02:04.527Z,53.22
2018-12-18T03:02:36.126Z,53.41
2018-12-18T03:03:07.721Z,53.13
2018-12-18T03:03:39.313Z,53.11
2018-12-18T03:04:10.915Z,53.02
2018-12-18T03:04:42.524Z,52.89
2018-12-18T03:05:14.118Z,52.46
2018-12-18T03:05:45.725Z,52.45
2018-12-18T03:06:17.342Z,52.55
2018-12-18T03:06:48.941Z,52.47
2018-12-18T03:07:20.533Z,52.42
2018-12-18T03:07:52.151Z,52.56
2018-12-18T03:08:23.755Z,52.43
2018-12-18T03:08:55.345Z,52.35
2018-12-18T03:09:26.975Z,52.57
2018-12-18T03:09:58.589Z,52.40
2018-12-18T03:10:30.185Z,52.66
2018-12-18T03:11:01.789Z,52.61
2018-12-18T03:11:33.391Z,52.62
2018-12-18T03:12:04.986Z,52.51
2018-12-18T03:12:36.581Z,52.53
2018-12-18T03:13:08.182Z,52.63
2018-12-18T03:13:39.775Z,52.42
2018-12-18T03:14:11.378Z,52.43
2018-12-18T03:14:42.994Z,52.46
2018-12-18T03:15:14.590Z,52.49
2018-12-18T03:15:46.185Z,52.56
2018-12-18T03:16:17.783Z,52.55
2018-12-18T03:16:49.491Z,52.69
2018-12-18T03:17:21.099Z,52.52
2018-12-18T03:17:52.693Z,52.47
2018-12-18T03:18:24.291Z,52.52
2018-12-18T03:18:55.885Z,52.59
2018-12-18T03:19:27.526Z,52.87
2018-12-18T03:19:59.123Z,52.90
2018-12-18T03:20:30.717Z,52.81
2018-12-18T03:21:02.311Z,52.84
2018-12-18T03:21:33.909Z,52.74
2018-12-18T03:22:05.533Z,52.83
2018-12-18T03:22:37.130Z,53.01
2018-12-18T03:23:08.716Z,52.96
2018-12-18T03:23:40.319Z,52.92
2018-12-18T03:24:11.923Z,52.90
2018-12-18T03:24:43.541Z,52.92
2018-12-18T03:25:15.149Z,53.11
2018-12-18T03:25:46.748Z,52.93
2018-12-18T03:26:18.352Z,52.85
2018-12-18T03:26:49.958Z,52.88
2018-12-18T03:27:21.572Z,52.88
2018-12-18T03:27:53.180Z,52.92
2018-12-18T03:28:24.767Z,52.89
2018-12-18T03:28:56.366Z,52.80
2018-12-18T03:29:27.957Z,52.80
2018-12-18T03:29:59.565Z,52.85
2018-12-18T03:30:31.163Z,52.87
2018-12-18T03:31:02.785Z,52.79
2018-12-18T03:31:34.397Z,52.69
2018-12-18T03:32:05.989Z,52.85
2018-12-18T03:32:37.581Z,52.81
2018-12-18T03:33:09.184Z,52.90
2018-12-18T03:33:40.791Z,52.93
2018-12-18T03:34:12.401Z,52.86
2018-12-18T03:34:44.037Z,52.80
2018-12-18T03:35:15.634Z,52.87
2018-12-18T03:35:47.218Z,53.00
2018-12-18T03:36:18.814Z,53.01
2018-12-18T03:36:50.452Z,53.02
2018-12-18T03:37:22.050Z,52.98
2018-12-18T03:37:53.641Z,53.01
2018-12-18T03:38:25.233Z,52.85
2018-12-18T03:38:56.825Z,52.91
2018-12-18T03:39:28.437Z,52.96
2018-12-18T03:40:00.076Z,53.02
2018-12-18T03:40:31.725Z,52.96
2018-12-18T03:41:03.313Z,52.86
2018-12-18T03:41:34.910Z,52.83
2018-12-18T03:42:06.521Z,45.53
2018-12-18T03:42:38.114Z,44.55
2018-12-18T03:43:09.708Z,43.74
2018-12-18T03:43:41.303Z,43.40
2018-12-18T03:44:12.899Z,43.34
2018-12-18T03:44:44.541Z,42.39
2018-12-18T03:45:16.133Z,42.79
2018-12-18T03:45:47.725Z,42.43
2018-12-18T03:46:19.328Z,42.78
2018-12-18T03:46:50.935Z,42.18
2018-12-18T03:47:22.548Z,41.88
2018-12-18T03:47:54.160Z,41.54
2018-12-18T03:48:25.761Z,41.60
2018-12-18T03:48:57.363Z,41.46
2018-12-18T03:49:28.968Z,41.49
2018-12-18T03:50:00.608Z,41.40
2018-12-18T03:50:32.222Z,41.38
2018-12-18T03:51:03.805Z,41.05
2018-12-18T03:51:35.402Z,41.20
2018-12-18T03:52:06.993Z,41.34
2018-12-18T03:52:38.590Z,41.24
2018-12-18T03:53:10.293Z,43.12
2018-12-18T03:53:41.913Z,44.77
2018-12-18T03:54:13.510Z,44.53
2018-12-18T03:54:45.131Z,44.94
2018-12-18T03:55:16.742Z,43.93
2018-12-18T03:55:48.338Z,43.24
2018-12-18T03:56:19.934Z,42.92
2018-12-18T03:56:51.529Z,42.48
2018-12-18T03:57:23.130Z,42.31
2018-12-18T03:57:54.744Z,42.27
2018-12-18T03:58:26.344Z,42.24
2018-12-18T03:58:57.947Z,42.39
2018-12-18T03:59:29.760Z,42.45
2018-12-18T04:00:01.695Z,42.33
2018-12-18T04:00:33.429Z,42.30
2018-12-18T04:01:05.035Z,42.21
2018-12-18T04:01:36.630Z,42.57
2018-12-18T04:02:08.222Z,42.71
2018-12-18T04:02:39.818Z,42.93
2018-12-18T04:03:11.419Z,42.53
2018-12-18T04:03:43.014Z,42.45
2018-12-18T04:04:14.624Z,42.40
2018-12-18T04:04:46.241Z,42.45
2018-12-18T04:05:17.865Z,42.54
2018-12-18T04:05:49.472Z,42.45
2018-12-18T04:06:21.059Z,42.55
2018-12-18T04:06:52.672Z,42.57
2018-12-18T04:07:24.274Z,42.61
2018-12-18T04:07:55.866Z,42.46
2018-12-18T04:08:27.466Z,42.57
2018-12-18T04:08:59.063Z,42.62
2018-12-18T04:09:30.671Z,42.69
2018-12-18T04:10:02.309Z,42.68
2018-12-18T04:10:33.906Z,42.77
2018-12-18T04:11:05.517Z,42.74
2018-12-18T04:11:37.114Z,42.83
2018-12-18T04:12:08.719Z,42.81
2018-12-18T04:12:40.320Z,42.88
2018-12-18T04:13:11.904Z,42.89
2018-12-18T04:13:43.508Z,42.94
2018-12-18T04:14:15.103Z,42.96
2018-12-18T04:14:46.701Z,42.99
2018-12-18T04:15:18.332Z,43.02
2018-12-18T04:15:49.922Z,43.00
2018-12-18T04:16:21.530Z,43.07
2018-12-18T04:16:53.126Z,43.17
2018-12-18T04:17:24.727Z,43.19
2018-12-18T04:17:56.329Z,43.23
2018-12-18T04:18:27.964Z,43.32
2018-12-18T04:18:59.574Z,43.36
2018-12-18T04:19:31.167Z,43.36
2018-12-18T04:20:02.793Z,43.31
2018-12-18T04:20:34.410Z,43.40
2018-12-18T04:21:06.007Z,43.39
2018-12-18T04:21:37.601Z,43.49
2018-12-18T04:22:09.201Z,43.52
2018-12-18T04:22:40.798Z,43.55
2018-12-18T04:23:12.404Z,43.63
2018-12-18T04:23:44.001Z,43.71
2018-12-18T04:24:15.598Z,43.72
2018-12-18T04:24:47.204Z,43.71
2018-12-18T04:25:18.827Z,43.78
2018-12-18T04:25:50.426Z,43.83
2018-12-18T04:26:22.022Z,43.88
2018-12-18T04:26:53.632Z,43.92
2018-12-18T04:27:25.239Z,44.06
2018-12-18T04:27:56.826Z,44.16
2018-12-18T04:28:28.435Z,44.18
2018-12-18T04:29:00.044Z,44.25
2018-12-18T04:29:31.642Z,44.33
2018-12-18T04:30:03.240Z,44.43
2018-12-18T04:30:34.873Z,44.43
2018-12-18T04:31:06.498Z,44.55
2018-12-18T04:31:38.095Z,44.61
2018-12-18T04:32:09.691Z,44.71
2018-12-18T04:32:41.268Z,44.82
2018-12-18T04:33:12.866Z,44.88
2018-12-18T04:33:44.460Z,44.98
2018-12-18T04:34:16.063Z,45.03
2018-12-18T04:34:47.647Z,45.10
2018-12-18T04:35:19.287Z,45.18
2018-12-18T04:35:50.883Z,45.22
2018-12-18T04:36:22.478Z,45.25
2018-12-18T04:36:54.254Z,45.40
2018-12-18T04:37:25.864Z,45.47
2018-12-18T04:37:57.453Z,45.47
2018-12-18T04:38:29.063Z,45.51
2018-12-18T04:39:00.660Z,45.58
2018-12-18T04:39:32.262Z,45.56
2018-12-18T04:40:03.840Z,45.64
2018-12-18T04:40:35.459Z,45.73
2018-12-18T04:41:07.063Z,45.78
2018-12-18T04:41:38.648Z,45.92
2018-12-18T04:42:10.256Z,45.87
2018-12-18T04:42:41.866Z,45.94
2018-12-18T04:43:13.479Z,46.04
2018-12-18T04:43:45.078Z,46.08
2018-12-18T04:44:16.673Z,46.14
2018-12-18T04:44:48.275Z,46.22
2018-12-18T04:45:19.858Z,46.29
2018-12-18T04:45:51.463Z,46.32
2018-12-18T04:46:23.058Z,46.34
2018-12-18T04:46:54.659Z,46.41
2018-12-18T04:47:26.268Z,46.42
2018-12-18T04:47:57.865Z,46.46
2018-12-18T04:48:29.473Z,46.46
2018-12-18T04:49:01.075Z,46.46
2018-12-18T04:49:32.705Z,46.47
2018-12-18T04:50:04.307Z,46.52
2018-12-18T04:50:35.933Z,46.55
2018-12-18T04:51:07.527Z,46.57
2018-12-18T04:51:39.132Z,46.61
2018-12-18T04:52:10.754Z,46.62
2018-12-18T04:52:42.356Z,46.67
2018-12-18T04:53:13.950Z,46.66
2018-12-18T04:53:45.553Z,46.67
2018-12-18T04:54:17.283Z,46.67
2018-12-18T04:54:48.878Z,46.71
2018-12-18T04:55:20.478Z,46.72
2018-12-18T04:55:52.083Z,46.77
2018-12-18T04:56:23.682Z,46.82
2018-12-18T04:56:55.287Z,46.83
2018-12-18T04:57:26.891Z,46.81
2018-12-18T04:57:58.476Z,46.82
2018-12-18T04:58:30.084Z,46.85
2018-12-18T04:59:01.688Z,46.88
2018-12-18T04:59:33.295Z,46.94
2018-12-18T05:00:04.902Z,46.91
2018-12-18T05:00:36.675Z,46.92
2018-12-18T05:01:08.290Z,46.97
2018-12-18T05:01:39.889Z,46.99
2018-12-18T05:02:11.478Z,47.01
2018-12-18T05:02:43.061Z,47.04
2018-12-18T05:03:14.674Z,47.05
2018-12-18T05:03:46.486Z,47.10
2018-12-18T05:04:18.134Z,47.13
2018-12-18T05:04:50.553Z,47.15
2018-12-18T05:05:21.404Z,47.15
2018-12-18T05:05:53.011Z,47.15
2018-12-18T05:06:24.600Z,47.16
2018-12-18T05:06:56.190Z,47.16
2018-12-18T05:07:27.803Z,47.17
2018-12-18T05:07:59.411Z,47.20
2018-12-18T05:08:31.016Z,47.22
2018-12-18T05:09:02.610Z,47.21
2018-12-18T05:09:34.215Z,47.25
2018-12-18T05:10:05.817Z,47.26
2018-12-18T05:10:37.439Z,47.28
2018-12-18T05:11:09.062Z,47.31
2018-12-18T05:11:40.672Z,47.32
2018-12-18T05:12:12.287Z,47.38
2018-12-18T05:12:43.897Z,47.41
2018-12-18T05:13:15.522Z,47.40
2018-12-18T05:13:47.144Z,47.40
2018-12-18T05:14:18.728Z,47.40
2018-12-18T05:14:50.327Z,47.39
2018-12-18T05:15:21.921Z,47.42
2018-12-18T05:15:53.531Z,47.43
2018-12-18T05:16:25.141Z,47.45
2018-12-18T05:16:56.761Z,47.45
2018-12-18T05:17:28.376Z,47.46
2018-12-18T05:17:59.970Z,47.47
2018-12-18T05:18:31.572Z,47.48
2018-12-18T05:19:03.179Z,47.51
2018-12-18T05:19:34.788Z,47.52
2018-12-18T05:20:06.376Z,47.55
2018-12-18T05:20:37.972Z,47.52
2018-12-18T05:21:09.589Z,47.52
2018-12-18T05:21:41.271Z,47.53
2018-12-18T05:22:12.884Z,47.57
2018-12-18T05:22:44.496Z,47.55
2018-12-18T05:23:16.097Z,47.55
2018-12-18T05:23:47.703Z,47.58
2018-12-18T05:24:19.294Z,47.59
2018-12-18T05:24:50.892Z,47.60
2018-12-18T05:25:22.485Z,47.60
2018-12-18T05:25:54.096Z,47.59
2018-12-18T05:26:25.715Z,47.58
2018-12-18T05:26:57.312Z,47.59
2018-12-18T05:27:28.912Z,47.60
2018-12-18T05:28:00.515Z,47.58
2018-12-18T05:28:33.201Z,47.60
2018-12-18T05:29:04.809Z,47.63
2018-12-18T05:29:36.395Z,47.60
2018-12-18T05:30:07.983Z,47.59
2018-12-18T05:30:39.582Z,47.61
2018-12-18T05:31:11.205Z,47.64
2018-12-18T05:31:42.802Z,47.64
2018-12-18T05:32:14.402Z,47.66
2018-12-18T05:32:46.008Z,47.70
2018-12-18T05:33:17.621Z,47.69
2018-12-18T05:33:49.232Z,47.66
2018-12-18T05:34:20.844Z,47.67
2018-12-18T05:34:56.567Z,47.61
2018-12-18T05:35:24.124Z,47.67
2018-12-18T05:35:55.777Z,47.70
2018-12-18T05:36:27.389Z,47.66
2018-12-18T05:36:58.983Z,47.68
2018-12-18T05:37:30.585Z,47.64
2018-12-18T05:38:02.200Z,47.58
2018-12-18T05:38:33.784Z,47.58
2018-12-18T05:39:05.395Z,47.57
2018-12-18T05:39:37.004Z,47.53
2018-12-18T05:40:08.635Z,47.48
2018-12-18T05:40:40.216Z,47.45
2018-12-18T05:41:11.873Z,47.42
2018-12-18T05:41:43.460Z,47.40
2018-12-18T05:42:15.063Z,47.39
2018-12-18T05:42:46.667Z,47.37
2018-12-18T05:43:18.273Z,47.32
2018-12-18T05:43:49.887Z,47.29
2018-12-18T05:44:21.481Z,47.28
2018-12-18T05:44:53.083Z,47.26
2018-12-18T05:45:24.677Z,47.21
2018-12-18T05:45:56.269Z,47.15
2018-12-18T05:46:27.899Z,47.09
2018-12-18T05:46:59.502Z,47.05
2018-12-18T05:47:31.099Z,47.01
2018-12-18T05:48:02.696Z,46.95
2018-12-18T05:48:34.294Z,46.91
2018-12-18T05:49:05.895Z,46.83
2018-12-18T05:49:37.609Z,46.81
2018-12-18T05:50:09.228Z,46.78
2018-12-18T05:50:40.846Z,46.71
2018-12-18T05:51:12.483Z,46.67
2018-12-18T05:51:44.082Z,46.65
2018-12-18T05:52:15.678Z,46.58
2018-12-18T05:52:47.284Z,46.53
2018-12-18T05:53:18.878Z,46.45
2018-12-18T05:53:50.468Z,46.39
2018-12-18T05:54:22.071Z,46.37
2018-12-18T05:54:53.673Z,46.33
2018-12-18T05:55:25.277Z,46.26
2018-12-18T05:55:56.860Z,46.22
2018-12-18T05:56:28.466Z,46.19
2018-12-18T05:57:00.057Z,46.18
2018-12-18T05:57:31.646Z,46.13
2018-12-18T05:58:03.238Z,46.12
2018-12-18T05:58:34.840Z,46.11
2018-12-18T05:59:06.448Z,46.07
2018-12-18T05:59:38.032Z,46.06
2018-12-18T06:00:09.622Z,46.02
2018-12-18T06:00:41.203Z,46.01
2018-12-18T06:01:12.835Z,46.01
2018-12-18T06:01:44.464Z,46.01
2018-12-18T06:02:16.052Z,45.98
2018-12-18T06:02:47.645Z,45.96
2018-12-18T06:03:19.238Z,46.00
2018-12-18T06:03:50.835Z,46.02
2018-12-18T06:04:22.440Z,46.06
2018-12-18T06:04:54.033Z,46.05
2018-12-18T06:05:25.625Z,46.03
2018-12-18T06:05:57.224Z,46.05
2018-12-18T06:06:28.861Z,46.10
2018-12-18T06:07:00.470Z,46.08
2018-12-18T06:07:32.087Z,46.13
2018-12-18T06:08:03.696Z,46.12
2018-12-18T06:08:35.289Z,46.15
2018-12-18T06:09:06.887Z,46.17
2018-12-18T06:09:38.501Z,46.22
2018-12-18T06:10:10.102Z,46.25
2018-12-18T06:10:41.697Z,46.26
2018-12-18T06:11:13.290Z,46.27
2018-12-18T06:11:44.924Z,46.30
2018-12-18T06:12:16.538Z,46.33
2018-12-18T06:12:48.139Z,46.39
2018-12-18T06:13:19.727Z,46.40
2018-12-18T06:13:51.323Z,46.43
2018-12-18T06:14:22.917Z,46.41
2018-12-18T06:14:54.519Z,46.43
2018-12-18T06:15:26.110Z,46.47
2018-12-18T06:15:57.721Z,46.50
2018-12-18T06:16:29.341Z,46.51
2018-12-18T06:17:00.936Z,46.55
2018-12-18T06:17:32.520Z,46.56
2018-12-18T06:18:04.120Z,46.60
2018-12-18T06:18:35.732Z,46.61
2018-12-18T06:19:07.395Z,46.67
2018-12-18T06:19:38.989Z,46.67
2018-12-18T06:20:10.581Z,46.69
2018-12-18T06:20:42.174Z,46.71
2018-12-18T06:21:13.774Z,46.72
2018-12-18T06:21:45.412Z,46.73
2018-12-18T06:22:17.015Z,46.76
2018-12-18T06:22:48.618Z,46.79
2018-12-18T06:23:20.219Z,46.81
2018-12-18T06:23:51.824Z,46.82
2018-12-18T06:24:23.422Z,46.86
2018-12-18T06:24:55.017Z,46.88
2018-12-18T06:25:26.613Z,46.89
2018-12-18T06:25:58.209Z,46.97
2018-12-18T06:26:29.834Z,46.98
2018-12-18T06:27:01.468Z,46.98
2018-12-18T06:27:33.064Z,46.99
2018-12-18T06:28:04.662Z,47.00
2018-12-18T06:28:36.276Z,47.01
2018-12-18T06:29:07.929Z,47.06
2018-12-18T06:29:39.525Z,47.06
2018-12-18T06:30:11.122Z,47.10
2018-12-18T06:30:42.728Z,47.15
2018-12-18T06:31:14.326Z,47.15
2018-12-18T06:31:45.946Z,47.18
2018-12-18T06:32:17.545Z,47.18
2018-12-18T06:32:49.138Z,47.17
2018-12-18T06:33:20.812Z,47.18
2018-12-18T06:33:52.409Z,47.25
2018-12-18T06:34:24.004Z,47.27
2018-12-18T06:34:55.597Z,47.29
2018-12-18T06:35:27.210Z,47.30
2018-12-18T06:35:58.820Z,47.37
2018-12-18T06:36:30.422Z,47.34
2018-12-18T06:37:02.045Z,47.39
2018-12-18T06:37:33.620Z,47.40
2018-12-18T06:38:05.210Z,47.42
2018-12-18T06:38:36.820Z,47.43
2018-12-18T06:39:08.433Z,47.43
2018-12-18T06:39:40.039Z,47.44
2018-12-18T06:40:11.648Z,47.43
2018-12-18T06:40:43.247Z,47.45
2018-12-18T06:41:14.847Z,47.46
2018-12-18T06:41:46.466Z,47.46
2018-12-18T06:42:18.060Z,47.47
2018-12-18T06:42:49.650Z,47.45
2018-12-18T06:43:21.261Z,47.46
2018-12-18T06:43:52.849Z,47.47
2018-12-18T06:44:24.444Z,47.50
2018-12-18T06:44:56.049Z,47.50
2018-12-18T06:45:27.648Z,47.50
2018-12-18T06:45:59.241Z,47.54
2018-12-18T06:46:30.849Z,47.52
2018-12-18T06:47:02.455Z,47.51